createdAt,value
2022-10-03T00:00:02.578Z,3.63
2022-10-03T00:02:32.461Z,3.93
2022-10-03T00:05:02.392Z,3.73
2022-10-03T00:07:37.579Z,4.23
2022-10-03T00:10:06.013Z,3.73
2022-10-03T00:12:47.375Z,3.50
2022-10-03T00:15:21.946Z,3.50
2022-10-03T00:18:12.283Z,3.57
2022-10-03T00:20:39.360Z,3.27
2022-10-03T00:23:19.767Z,3.40
2022-10-03T00:25:53.123Z,3.47
2022-10-03T00:28:26.152Z,3.57
2022-10-03T00:30:53.278Z,3.87
2022-10-03T00:33:26.579Z,3.90
2022-10-03T00:35:56.405Z,4.20
2022-10-03T00:38:48.847Z,4.10
2022-10-03T00:41:34.747Z,4.20
2022-10-03T00:44:01.876Z,4.00
2022-10-03T00:46:38.095Z,3.80
2022-10-03T00:49:23.400Z,4.10
2022-10-03T00:52:17.037Z,4.70
2022-10-03T00:54:59.483Z,6.60
2022-10-03T00:57:38.576Z,7.23
2022-10-03T01:00:27.346Z,6.67
2022-10-03T01:02:57.450Z,7.43
2022-10-03T01:05:24.603Z,7.37
2022-10-03T01:07:57.799Z,7.50
2022-10-03T01:10:28.187Z,7.33
2022-10-03T01:13:07.735Z,7.90
2022-10-03T01:15:50.196Z,7.23
2022-10-03T01:18:29.552Z,6.63
2022-10-03T01:20:58.245Z,6.83
2022-10-03T01:23:52.263Z,6.60
2022-10-03T01:26:19.307Z,5.80
2022-10-03T01:29:07.825Z,5.70
2022-10-03T01:31:39.849Z,4.67
2022-10-03T01:34:16.325Z,4.90
2022-10-03T01:36:46.474Z,4.30
2022-10-03T01:39:20.359Z,3.90
2022-10-03T01:42:06.651Z,4.73
2022-10-03T01:44:52.952Z,5.30
2022-10-03T01:47:27.282Z,6.27
2022-10-03T01:49:54.392Z,6.40
2022-10-03T01:52:21.444Z,6.37
2022-10-03T01:54:51.250Z,6.30
2022-10-03T01:57:22.117Z,6.00
2022-10-03T01:59:55.762Z,5.37
2022-10-03T02:02:31.992Z,5.40
2022-10-03T02:05:04.980Z,5.67
2022-10-03T02:07:43.716Z,6.03
2022-10-03T02:10:19.804Z,5.87
2022-10-03T02:12:50.370Z,5.50
2022-10-03T02:15:46.900Z,5.57
2022-10-03T02:18:13.979Z,4.80
2022-10-03T02:20:48.213Z,4.87
2022-10-03T02:23:23.616Z,4.50
2022-10-03T02:26:09.569Z,4.20
2022-10-03T02:28:51.932Z,4.07
2022-10-03T02:31:45.126Z,3.23
2022-10-03T02:34:25.490Z,3.77
2022-10-03T02:36:58.634Z,3.00
2022-10-03T02:39:50.433Z,3.00
2022-10-03T02:42:41.219Z,3.27
2022-10-03T02:45:11.383Z,3.10
2022-10-03T02:47:59.981Z,3.23
2022-10-03T02:51:02.078Z,3.40
2022-10-03T02:53:48.327Z,3.83
2022-10-03T02:56:33.978Z,3.70
2022-10-03T02:59:13.329Z,3.60
2022-10-03T03:01:46.264Z,3.63
2022-10-03T03:04:16.432Z,3.20
2022-10-03T03:06:43.483Z,3.30
2022-10-03T03:09:34.657Z,3.27
2022-10-03T03:12:20.484Z,3.23
2022-10-03T03:15:08.432Z,3.57
2022-10-03T03:18:11.227Z,3.03
2022-10-03T03:20:52.174Z,2.90
2022-10-03T03:23:36.158Z,3.00
2022-10-03T03:26:12.877Z,3.00
2022-10-03T03:28:57.400Z,3.40
2022-10-03T03:31:44.037Z,3.30
2022-10-03T03:34:29.877Z,3.47
2022-10-03T03:37:04.734Z,3.80
2022-10-03T03:39:47.687Z,3.37
2022-10-03T03:42:23.805Z,4.10
2022-10-03T03:45:09.568Z,3.70
2022-10-03T03:47:43.315Z,4.10
2022-10-03T03:50:23.785Z,4.00
2022-10-03T03:52:57.186Z,3.70
2022-10-03T03:55:27.065Z,3.63
2022-10-03T03:58:02.442Z,3.30
2022-10-03T04:00:46.945Z,3.40
2022-10-03T04:03:26.068Z,3.40
2022-10-03T04:05:53.657Z,3.33
2022-10-03T04:08:28.733Z,3.00
2022-10-03T04:11:07.780Z,3.47
2022-10-03T04:13:47.749Z,3.30
2022-10-03T04:16:14.885Z,3.03
2022-10-03T04:18:59.855Z,2.80
2022-10-03T04:21:33.290Z,2.80
2022-10-03T04:24:12.854Z,3.10
2022-10-03T04:26:51.909Z,2.73
2022-10-03T04:29:18.985Z,2.93
2022-10-03T04:32:07.832Z,2.80
2022-10-03T04:34:53.184Z,2.80
2022-10-03T04:37:35.344Z,2.30
2022-10-03T04:40:16.912Z,2.30
2022-10-03T04:42:46.975Z,2.20
2022-10-03T04:45:14.243Z,2.67
2022-10-03T04:47:51.709Z,2.40
2022-10-03T04:50:37.548Z,2.50
2022-10-03T04:53:11.459Z,3.17
2022-10-03T04:55:50.116Z,2.50
2022-10-03T04:58:32.489Z,2.40
2022-10-03T05:01:17.547Z,2.80
2022-10-03T05:03:59.923Z,2.50
2022-10-03T05:06:31.318Z,6.13
2022-10-03T05:09:04.469Z,2.27
2022-10-03T05:11:47.419Z,2.50
2022-10-03T05:14:33.074Z,2.70
2022-10-03T05:17:14.184Z,2.80
2022-10-03T05:19:51.987Z,2.93
2022-10-03T05:22:32.984Z,2.60
2022-10-03T05:25:15.317Z,2.63
2022-10-03T05:27:42.412Z,2.50
2022-10-03T05:30:28.271Z,2.50
2022-10-03T05:33:08.515Z,2.60
2022-10-03T05:35:54.572Z,2.40
2022-10-03T05:38:21.730Z,2.70
2022-10-03T05:41:09.107Z,2.80
2022-10-03T05:43:47.797Z,2.50
2022-10-03T05:46:33.218Z,2.30
2022-10-03T05:49:06.955Z,2.50
2022-10-03T05:51:46.409Z,2.30
2022-10-03T05:54:25.737Z,2.17
2022-10-03T05:56:52.804Z,2.20
2022-10-03T05:59:25.999Z,2.17
2022-10-03T06:02:11.689Z,2.20
2022-10-03T06:04:58.690Z,2.23
2022-10-03T06:07:29.790Z,2.10
2022-10-03T06:10:06.023Z,2.10
2022-10-03T06:12:35.876Z,2.17
2022-10-03T06:15:14.482Z,2.20
2022-10-03T06:17:44.500Z,1.90
2022-10-03T06:20:20.146Z,1.90
2022-10-03T06:22:56.566Z,1.93
2022-10-03T06:25:42.338Z,2.00
2022-10-03T06:28:35.799Z,3.40
2022-10-03T06:31:05.960Z,1.90
2022-10-03T06:33:33.078Z,2.10
2022-10-03T06:36:18.969Z,1.83
2022-10-03T06:38:52.196Z,1.60
2022-10-03T06:41:22.339Z,1.80
2022-10-03T06:43:58.596Z,1.77
2022-10-03T06:46:28.523Z,2.00
2022-10-03T06:49:07.859Z,1.60
2022-10-03T06:51:44.514Z,1.70
2022-10-03T06:54:30.811Z,1.90
2022-10-03T06:57:04.683Z,2.03
2022-10-03T06:59:54.932Z,1.57
2022-10-03T07:02:32.944Z,2.00
2022-10-03T07:05:19.496Z,1.60
2022-10-03T07:08:06.101Z,1.50
2022-10-03T07:10:51.932Z,1.60
2022-10-03T07:13:19.007Z,1.80
2022-10-03T07:16:14.167Z,1.83
2022-10-03T07:19:17.777Z,1.83
2022-10-03T07:21:47.621Z,1.57
2022-10-03T07:24:17.779Z,1.70
2022-10-03T07:26:53.812Z,1.80
2022-10-03T07:29:29.963Z,1.80
2022-10-03T07:32:17.711Z,1.80
2022-10-03T07:34:50.612Z,2.10
2022-10-03T07:37:46.396Z,1.57
2022-10-03T07:40:16.291Z,1.93
2022-10-03T07:43:03.977Z,1.90
2022-10-03T07:45:34.769Z,2.23
2022-10-03T07:48:17.311Z,1.80
2022-10-03T07:50:50.803Z,2.03
2022-10-03T07:53:36.780Z,1.87
2022-10-03T07:56:22.764Z,1.80
2022-10-03T07:58:56.036Z,2.00
2022-10-03T08:01:32.459Z,1.90
2022-10-03T08:03:59.648Z,2.03
2022-10-03T08:06:33.753Z,1.90
2022-10-03T08:09:12.703Z,1.80
2022-10-03T08:11:54.794Z,1.90
2022-10-03T08:14:24.662Z,2.00
2022-10-03T08:17:06.940Z,2.00
2022-10-03T08:19:42.803Z,1.97
2022-10-03T08:22:17.762Z,1.90
2022-10-03T08:25:02.983Z,2.13
2022-10-03T08:27:40.170Z,1.93
2022-10-03T08:30:19.960Z,1.80
2022-10-03T08:32:48.880Z,1.60
2022-10-03T08:35:25.439Z,1.90
2022-10-03T08:38:12.368Z,1.83
2022-10-03T08:40:42.500Z,1.67
2022-10-03T08:43:21.712Z,1.80
2022-10-03T08:46:01.136Z,1.80
2022-10-03T08:48:41.040Z,1.73
2022-10-03T08:51:26.775Z,1.60
2022-10-03T08:53:56.993Z,1.57
2022-10-03T08:56:33.073Z,1.50
2022-10-03T08:59:00.255Z,1.43
2022-10-03T09:01:30.431Z,1.40
2022-10-03T09:04:16.121Z,1.17
2022-10-03T09:07:16.038Z,1.50
2022-10-03T09:09:59.312Z,1.37
2022-10-03T09:12:32.917Z,1.20
2022-10-03T09:14:59.995Z,1.23
2022-10-03T09:17:38.007Z,1.30
2022-10-03T09:20:29.303Z,1.20
2022-10-03T09:22:56.447Z,1.30
2022-10-03T09:25:23.533Z,1.20
2022-10-03T09:28:17.000Z,1.00
2022-10-03T09:30:56.841Z,1.20
2022-10-03T09:33:44.785Z,1.30
2022-10-03T09:36:32.232Z,1.00
2022-10-03T09:39:05.941Z,1.37
2022-10-03T09:41:56.201Z,1.20
2022-10-03T09:44:32.248Z,1.00
2022-10-03T09:47:18.285Z,1.37
2022-10-03T09:49:45.366Z,1.30
2022-10-03T09:52:25.163Z,1.30
2022-10-03T09:55:12.710Z,1.10
2022-10-03T09:57:40.257Z,1.10
2022-10-03T10:00:10.388Z,1.10
2022-10-03T10:02:40.580Z,1.20
2022-10-03T10:05:16.907Z,1.37
2022-10-03T10:07:46.836Z,1.20
2022-10-03T10:10:29.806Z,1.00
2022-10-03T10:13:15.686Z,1.23
2022-10-03T10:15:57.812Z,1.10
2022-10-03T10:18:51.350Z,1.13
2022-10-03T10:21:36.938Z,1.00
2022-10-03T10:24:07.146Z,0.93
2022-10-03T10:26:56.071Z,1.30
2022-10-03T10:29:25.938Z,1.20
2022-10-03T10:32:11.976Z,1.05
2022-10-03T10:34:48.539Z,1.10
2022-10-03T10:37:46.421Z,1.13
2022-10-03T10:40:19.642Z,1.10
2022-10-03T10:42:47.000Z,1.10
2022-10-03T10:45:29.328Z,1.50
2022-10-03T10:47:59.463Z,1.10
2022-10-03T10:50:45.105Z,1.27
2022-10-03T10:53:32.965Z,1.20
2022-10-03T10:56:06.194Z,1.20
2022-10-03T10:58:39.428Z,1.33
2022-10-03T11:01:07.135Z,1.02
2022-10-03T11:03:53.034Z,1.30
2022-10-03T11:06:39.014Z,1.25
2022-10-03T11:09:25.451Z,1.30
2022-10-03T11:12:11.581Z,1.20
2022-10-03T11:14:59.215Z,1.30
2022-10-03T11:17:41.648Z,1.30
2022-10-03T11:20:27.234Z,1.23
2022-10-03T11:23:04.498Z,1.10
2022-10-03T11:25:37.965Z,1.17
2022-10-03T11:28:27.274Z,1.35
2022-10-03T11:31:13.217Z,1.38
2022-10-03T11:33:43.083Z,1.30
2022-10-03T11:36:25.233Z,1.15
2022-10-03T11:39:06.711Z,1.27
2022-10-03T11:41:56.888Z,1.10
2022-10-03T11:44:30.740Z,0.95
2022-10-03T11:47:00.819Z,1.17
2022-10-03T11:49:40.110Z,1.30
2022-10-03T11:52:13.270Z,1.30
2022-10-03T11:54:44.863Z,1.20
2022-10-03T11:57:15.039Z,1.00
2022-10-03T11:59:51.133Z,1.30
2022-10-03T12:02:38.728Z,1.30
2022-10-03T12:05:24.855Z,1.27
2022-10-03T12:08:19.801Z,1.27
2022-10-03T12:10:53.135Z,1.60
2022-10-03T12:13:29.643Z,1.00
2022-10-03T12:16:00.487Z,1.42
2022-10-03T12:18:42.849Z,1.30
2022-10-03T12:21:12.030Z,1.38
2022-10-03T12:23:41.905Z,1.10
2022-10-03T12:26:12.722Z,1.30
2022-10-03T12:28:46.297Z,1.10
2022-10-03T12:31:19.259Z,1.20
2022-10-03T12:33:49.762Z,1.10
2022-10-03T12:36:19.508Z,1.50
2022-10-03T12:38:50.924Z,1.10
2022-10-03T12:41:37.741Z,1.13
2022-10-03T12:44:17.357Z,1.10
2022-10-03T12:47:04.871Z,1.40
2022-10-03T12:49:53.701Z,1.10
2022-10-03T12:52:27.528Z,1.23
2022-10-03T12:55:13.192Z,1.30
2022-10-03T12:57:49.311Z,1.38
2022-10-03T13:00:37.426Z,1.40
2022-10-03T13:03:04.524Z,1.20
2022-10-03T13:05:55.869Z,1.48
2022-10-03T13:08:35.270Z,1.38
2022-10-03T13:11:25.737Z,1.60
2022-10-03T13:14:10.774Z,1.10
2022-10-03T13:16:51.086Z,1.40
2022-10-03T13:19:20.480Z,1.30
2022-10-03T13:22:07.179Z,1.20
2022-10-03T13:24:42.897Z,1.30
2022-10-03T13:27:13.041Z,1.05
2022-10-03T13:29:53.558Z,1.17
2022-10-03T13:32:28.915Z,1.27
2022-10-03T13:35:24.462Z,1.40
2022-10-03T13:38:07.736Z,1.40
2022-10-03T13:40:43.382Z,1.30
2022-10-03T13:43:13.785Z,1.60
2022-10-03T13:45:44.397Z,1.30
2022-10-03T13:48:14.930Z,1.30
2022-10-03T13:51:02.626Z,1.40
2022-10-03T13:53:29.838Z,1.40
2022-10-03T13:56:01.688Z,1.02
2022-10-03T13:58:47.756Z,1.50
2022-10-03T14:01:35.386Z,1.40
2022-10-03T14:04:21.781Z,1.60
2022-10-03T14:06:51.287Z,1.60
2022-10-03T14:09:34.727Z,1.47
2022-10-03T14:12:09.182Z,1.43
2022-10-03T14:14:55.023Z,1.37
2022-10-03T14:17:29.017Z,1.20
2022-10-03T14:20:08.267Z,1.30
2022-10-03T14:22:46.170Z,1.27
2022-10-03T14:25:19.664Z,1.23
2022-10-03T14:27:49.962Z,1.40
2022-10-03T14:30:32.833Z,1.27
2022-10-03T14:33:18.659Z,1.30
2022-10-03T14:35:54.563Z,1.50
2022-10-03T14:38:24.622Z,1.33
2022-10-03T14:40:56.274Z,1.30
2022-10-03T14:43:26.412Z,1.20
2022-10-03T14:45:55.933Z,1.10
2022-10-03T14:48:23.058Z,1.40
2022-10-03T14:50:54.720Z,1.50
2022-10-03T14:53:27.420Z,1.33
2022-10-03T14:55:57.528Z,1.53
2022-10-03T14:58:29.404Z,1.40
2022-10-03T15:01:02.664Z,1.40
2022-10-03T15:03:38.173Z,1.17
2022-10-03T15:06:11.474Z,1.50
2022-10-03T15:08:40.592Z,1.20
2022-10-03T15:11:08.500Z,1.23
2022-10-03T15:13:38.891Z,1.10
2022-10-03T15:16:07.587Z,1.30
2022-10-03T15:18:34.846Z,1.40
2022-10-03T15:21:02.757Z,1.30
2022-10-03T15:23:34.838Z,1.00
2022-10-03T15:26:02.349Z,1.43
2022-10-03T15:28:36.252Z,1.30
2022-10-03T15:31:13.245Z,1.23
2022-10-03T15:33:41.825Z,1.33
2022-10-03T15:36:17.675Z,1.20
2022-10-03T15:38:49.394Z,1.40
2022-10-03T15:41:18.416Z,1.20
2022-10-03T15:43:52.465Z,1.40
2022-10-03T15:46:37.097Z,1.10
2022-10-03T15:49:08.157Z,1.13
2022-10-03T15:51:38.750Z,1.50
2022-10-03T15:54:09.226Z,1.40
2022-10-03T15:56:39.939Z,1.20
2022-10-03T15:59:09.473Z,1.50
2022-10-03T16:01:46.817Z,1.43
2022-10-03T16:04:20.716Z,1.33
2022-10-03T16:06:57.848Z,1.30
2022-10-03T16:09:45.472Z,1.67
2022-10-03T16:12:12.677Z,1.20
2022-10-03T16:14:44.942Z,1.40
2022-10-03T16:17:24.704Z,1.43
2022-10-03T16:20:15.589Z,1.20
2022-10-03T16:22:45.819Z,1.50
2022-10-03T16:25:20.452Z,1.40
2022-10-03T16:27:53.307Z,1.63
2022-10-03T16:30:22.486Z,1.40
2022-10-03T16:32:58.834Z,1.50
2022-10-03T16:35:25.900Z,1.60
2022-10-03T16:37:53.490Z,1.33
2022-10-03T16:40:22.278Z,1.30
2022-10-03T16:42:52.155Z,1.23
2022-10-03T16:45:27.150Z,1.40
2022-10-03T16:48:15.989Z,1.77
2022-10-03T16:50:52.420Z,1.70
2022-10-03T16:53:21.230Z,1.43
2022-10-03T16:55:50.274Z,1.60
2022-10-03T16:58:23.160Z,1.57
2022-10-03T17:01:09.039Z,1.47
2022-10-03T17:03:53.624Z,1.60
2022-10-03T17:06:22.295Z,1.50
2022-10-03T17:08:51.390Z,1.40
2022-10-03T17:11:21.523Z,1.60
2022-10-03T17:13:52.098Z,1.60
2022-10-03T17:16:34.070Z,1.60
2022-10-03T17:19:08.301Z,1.50
2022-10-03T17:21:39.099Z,1.57
2022-10-03T17:24:12.611Z,1.70
2022-10-03T17:26:41.739Z,1.43
2022-10-03T17:29:15.261Z,1.60
2022-10-03T17:31:47.666Z,1.57
2022-10-03T17:34:17.608Z,1.80
2022-10-03T17:37:16.328Z,1.60
2022-10-03T17:39:49.411Z,1.80
2022-10-03T17:42:19.423Z,1.70
2022-10-03T17:45:12.393Z,1.60
2022-10-03T17:47:42.695Z,1.60
2022-10-03T17:50:18.955Z,1.50
2022-10-03T17:52:48.308Z,1.63
2022-10-03T17:55:44.879Z,1.53
2022-10-03T17:58:17.221Z,1.60
2022-10-03T18:00:48.711Z,1.50
2022-10-03T18:03:15.837Z,1.73
2022-10-03T18:05:47.427Z,1.70
2022-10-03T18:08:24.392Z,1.73
2022-10-03T18:10:56.201Z,1.60
2022-10-03T18:13:27.567Z,1.87
2022-10-03T18:15:57.898Z,1.80
2022-10-03T18:18:34.214Z,1.77
2022-10-03T18:21:05.651Z,1.70
2022-10-03T18:23:53.775Z,1.80
2022-10-03T18:26:33.630Z,1.67
2022-10-03T18:29:19.973Z,1.50
2022-10-03T18:31:58.418Z,1.50
2022-10-03T18:34:37.589Z,1.60
2022-10-03T18:37:31.106Z,1.77
2022-10-03T18:39:59.704Z,1.60
2022-10-03T18:42:30.953Z,2.10
2022-10-03T18:44:58.900Z,1.70
2022-10-03T18:47:32.148Z,2.00
2022-10-03T18:50:05.111Z,1.70
2022-10-03T18:52:37.982Z,2.00
2022-10-03T18:55:17.107Z,2.10
2022-10-03T18:57:57.450Z,2.00
2022-10-03T19:00:32.563Z,2.40
2022-10-03T19:03:02.581Z,2.17
2022-10-03T19:05:44.625Z,2.00
2022-10-03T19:08:27.008Z,2.40
2022-10-03T19:10:55.498Z,2.30
2022-10-03T19:13:45.462Z,2.70
2022-10-03T19:16:16.903Z,2.50
2022-10-03T19:18:44.083Z,2.10
2022-10-03T19:21:22.592Z,2.27
2022-10-03T19:24:12.489Z,2.23
2022-10-03T19:26:44.860Z,2.30
2022-10-03T19:29:15.632Z,2.33
2022-10-03T19:31:53.295Z,2.27
2022-10-03T19:34:29.245Z,2.47
2022-10-03T19:36:57.459Z,2.07
2022-10-03T19:39:26.455Z,2.37
2022-10-03T19:42:13.863Z,2.53
2022-10-03T19:44:41.302Z,2.07
2022-10-03T19:47:27.339Z,2.40
2022-10-03T19:50:06.811Z,2.10
2022-10-03T19:52:34.877Z,2.20
2022-10-03T19:55:03.756Z,2.47
2022-10-03T19:57:42.486Z,2.10
2022-10-03T20:00:15.741Z,2.00
2022-10-03T20:02:44.120Z,2.00
2022-10-03T20:05:21.713Z,2.00
2022-10-03T20:07:53.743Z,2.37
2022-10-03T20:10:23.716Z,2.20
2022-10-03T20:12:52.284Z,2.33
2022-10-03T20:15:23.130Z,2.00
2022-10-03T20:17:51.248Z,1.90
2022-10-03T20:20:20.945Z,2.00
2022-10-03T20:22:49.369Z,2.00
2022-10-03T20:25:43.209Z,2.07
2022-10-03T20:28:18.020Z,1.83
2022-10-03T20:30:46.591Z,2.27
2022-10-03T20:33:28.474Z,2.00
2022-10-03T20:35:55.515Z,1.70
2022-10-03T20:38:27.732Z,1.90
2022-10-03T20:41:04.080Z,2.13
2022-10-03T20:43:41.813Z,2.00
2022-10-03T20:46:30.296Z,1.67
2022-10-03T20:49:05.820Z,1.67
2022-10-03T20:51:42.208Z,1.90
2022-10-03T20:54:17.843Z,2.20
2022-10-03T20:56:54.337Z,2.00
2022-10-03T20:59:26.088Z,2.00
2022-10-03T21:02:05.177Z,2.00
2022-10-03T21:04:35.855Z,2.00
2022-10-03T21:07:07.442Z,2.20
2022-10-03T21:09:40.338Z,2.33
2022-10-03T21:12:07.811Z,2.40
2022-10-03T21:14:35.787Z,2.20
2022-10-03T21:17:03.265Z,2.40
2022-10-03T21:19:33.104Z,2.07
2022-10-03T21:22:03.210Z,2.20
2022-10-03T21:24:49.014Z,2.10
2022-10-03T21:27:16.744Z,2.50
2022-10-03T21:30:02.711Z,2.30
2022-10-03T21:32:32.542Z,2.37
2022-10-03T21:34:59.589Z,2.43
2022-10-03T21:37:30.515Z,3.03
2022-10-03T21:39:57.577Z,2.40
2022-10-03T21:42:33.495Z,2.20
2022-10-03T21:45:11.894Z,2.63
2022-10-03T21:47:50.905Z,2.60
2022-10-03T21:50:25.372Z,2.60
2022-10-03T21:52:57.604Z,2.50
2022-10-03T21:55:39.488Z,2.50
2022-10-03T21:58:38.032Z,2.43
2022-10-03T22:01:12.813Z,2.33
2022-10-03T22:03:49.335Z,2.33
2022-10-03T22:06:33.285Z,2.73
2022-10-03T22:09:05.085Z,2.47
2022-10-03T22:11:50.723Z,2.20
2022-10-03T22:14:22.208Z,2.20
2022-10-03T22:17:05.052Z,2.67
2022-10-03T22:19:35.383Z,2.73
2022-10-03T22:22:05.455Z,3.03
2022-10-03T22:24:43.944Z,3.10
2022-10-03T22:27:21.140Z,3.30
2022-10-03T22:30:08.288Z,3.27
2022-10-03T22:32:43.091Z,3.43
2022-10-03T22:35:32.827Z,3.13
2022-10-03T22:38:00.469Z,3.23
2022-10-03T22:40:28.332Z,3.10
2022-10-03T22:42:56.567Z,3.33
2022-10-03T22:45:28.774Z,2.97
2022-10-03T22:47:58.434Z,3.00
2022-10-03T22:50:30.237Z,2.90
2022-10-03T22:52:58.736Z,2.50
2022-10-03T22:55:27.208Z,2.57
2022-10-03T22:57:55.696Z,3.30
2022-10-03T23:00:24.320Z,3.30
2022-10-03T23:02:58.917Z,2.53
2022-10-03T23:05:32.136Z,2.67
2022-10-03T23:08:14.975Z,2.63
2022-10-03T23:10:51.158Z,2.70
2022-10-03T23:13:21.024Z,2.60
2022-10-03T23:15:50.691Z,2.60
2022-10-03T23:18:39.038Z,2.70
2022-10-03T23:21:10.415Z,2.73
2022-10-03T23:23:41.933Z,2.77
2022-10-03T23:26:27.586Z,2.70
2022-10-03T23:29:03.917Z,2.50
2022-10-03T23:31:49.979Z,3.13
2022-10-03T23:34:49.503Z,2.70
2022-10-03T23:37:16.579Z,2.83
2022-10-03T23:39:56.073Z,3.13
2022-10-03T23:42:27.652Z,2.90
2022-10-03T23:44:55.196Z,2.87
2022-10-03T23:47:34.660Z,3.80
2022-10-03T23:50:03.696Z,4.13
2022-10-03T23:52:32.646Z,2.77
2022-10-03T23:55:03.151Z,3.47
2022-10-03T23:57:48.720Z,5.80
